createdAt,value
2022-09-03T00:00:04.920Z,16.68
2022-09-03T00:05:15.129Z,16.57
2022-09-03T00:10:24.043Z,16.65
2022-09-03T00:15:27.234Z,16.45
2022-09-03T00:20:33.123Z,16.51
2022-09-03T00:25:40.372Z,16.47
2022-09-03T00:30:44.447Z,16.26
2022-09-03T00:35:51.085Z,16.20
2022-09-03T00:41:03.447Z,16.32
2022-09-03T00:46:10.962Z,16.26
2022-09-03T00:51:20.022Z,16.18
2022-09-03T00:56:29.896Z,16.05
2022-09-03T01:01:38.027Z,15.99
2022-09-03T01:06:45.766Z,16.01
2022-09-03T01:11:59.386Z,16.07
2022-09-03T01:17:09.782Z,16.00
2022-09-03T01:22:25.651Z,15.87
2022-09-03T01:27:40.302Z,15.95
2022-09-03T01:32:48.113Z,15.79
2022-09-03T01:38:01.328Z,15.77
2022-09-03T01:43:17.181Z,15.74
2022-09-03T01:48:33.159Z,15.74
2022-09-03T01:53:47.184Z,15.67
2022-09-03T01:58:56.850Z,15.62
2022-09-03T02:04:01.203Z,15.49
2022-09-03T02:09:03.842Z,15.37
2022-09-03T02:14:06.673Z,15.38
2022-09-03T02:19:13.230Z,15.32
2022-09-03T02:24:15.760Z,15.32
2022-09-03T02:29:18.703Z,15.20
2022-09-03T02:34:22.711Z,15.20
2022-09-03T02:39:25.409Z,15.10
2022-09-03T02:44:31.540Z,15.08
2022-09-03T02:49:36.016Z,15.11
2022-09-03T02:54:40.551Z,15.06
2022-09-03T02:59:45.396Z,14.99
2022-09-03T03:04:49.551Z,14.78
2022-09-03T03:09:52.176Z,14.93
2022-09-03T03:14:54.783Z,14.80
2022-09-03T03:19:58.746Z,14.81
2022-09-03T03:25:01.523Z,14.78
2022-09-03T03:30:04.458Z,14.78
2022-09-03T03:35:09.289Z,14.70
2022-09-03T03:40:13.028Z,14.64
2022-09-03T03:45:15.737Z,14.68
2022-09-03T03:50:20.395Z,14.53
2022-09-03T03:55:23.011Z,14.60
2022-09-03T04:00:29.650Z,14.56
2022-09-03T04:05:33.925Z,14.52
2022-09-03T04:10:37.184Z,14.47
2022-09-03T04:15:40.801Z,14.40
2022-09-03T04:20:45.739Z,14.41
2022-09-03T04:25:53.285Z,14.28
2022-09-03T04:30:56.263Z,14.22
2022-09-03T04:36:09.321Z,14.24
2022-09-03T04:41:20.181Z,14.28
2022-09-03T04:46:26.029Z,14.14
2022-09-03T04:51:31.439Z,14.20
2022-09-03T04:56:35.722Z,14.16
2022-09-03T05:01:40.259Z,14.12
2022-09-03T05:06:45.290Z,14.17
2022-09-03T05:11:47.894Z,14.14
2022-09-03T05:16:53.094Z,14.24
2022-09-03T05:21:57.450Z,14.19
2022-09-03T05:27:00.134Z,14.34
2022-09-03T05:32:03.985Z,14.36
2022-09-03T05:37:07.983Z,14.39
2022-09-03T05:42:14.233Z,14.39
2022-09-03T05:47:16.894Z,14.41
2022-09-03T05:52:21.681Z,14.49
2022-09-03T05:57:24.799Z,14.58
2022-09-03T06:02:27.552Z,14.75
2022-09-03T06:07:34.107Z,14.83
2022-09-03T06:12:37.111Z,15.01
2022-09-03T06:17:39.742Z,15.14
2022-09-03T06:22:45.837Z,15.20
2022-09-03T06:27:49.423Z,15.38
2022-09-03T06:32:52.379Z,15.47
2022-09-03T06:37:56.326Z,15.59
2022-09-03T06:43:01.974Z,15.80
2022-09-03T06:48:05.138Z,16.01
2022-09-03T06:53:09.346Z,16.26
2022-09-03T06:58:11.998Z,16.46
2022-09-03T07:03:14.687Z,16.68
2022-09-03T07:08:18.875Z,16.93
2022-09-03T07:13:22.160Z,16.98
2022-09-03T07:18:25.063Z,17.14
2022-09-03T07:23:30.535Z,17.30
2022-09-03T07:28:33.319Z,17.44
2022-09-03T07:33:36.054Z,17.55
2022-09-03T07:38:40.080Z,17.62
2022-09-03T07:43:44.138Z,17.89
2022-09-03T07:48:48.928Z,17.85
2022-09-03T07:53:54.485Z,18.00
2022-09-03T07:58:57.168Z,18.31
2022-09-03T08:03:59.845Z,18.40
2022-09-03T08:09:05.864Z,18.34
2022-09-03T08:14:10.286Z,18.58
2022-09-03T08:19:13.165Z,18.90
2022-09-03T08:24:20.855Z,19.10
2022-09-03T08:29:23.510Z,19.18
2022-09-03T08:34:26.538Z,19.33
2022-09-03T08:39:31.554Z,19.50
2022-09-03T08:44:39.877Z,19.84
2022-09-03T08:49:47.220Z,19.78
2022-09-03T08:54:52.840Z,19.88
2022-09-03T08:59:57.094Z,20.10
2022-09-03T09:05:03.462Z,20.24
2022-09-03T09:10:13.881Z,20.23
2022-09-03T09:15:23.708Z,20.01
2022-09-03T09:20:33.698Z,20.12
2022-09-03T09:25:44.862Z,20.38
2022-09-03T09:30:49.252Z,20.53
2022-09-03T09:35:52.135Z,20.48
2022-09-03T09:40:57.477Z,20.60
2022-09-03T09:46:08.420Z,20.76
2022-09-03T09:51:13.519Z,20.86
2022-09-03T09:56:24.597Z,21.06
2022-09-03T10:01:30.295Z,21.20
2022-09-03T10:06:51.034Z,21.41
2022-09-03T10:12:06.828Z,21.66
2022-09-03T10:17:13.734Z,21.93
2022-09-03T10:22:19.963Z,21.89
2022-09-03T10:27:24.072Z,22.01
2022-09-03T10:32:38.807Z,22.22
2022-09-03T10:37:46.106Z,22.19
2022-09-03T10:42:59.402Z,22.37
2022-09-03T10:48:13.192Z,22.12
2022-09-03T10:53:25.518Z,22.40
2022-09-03T10:58:49.586Z,22.70
2022-09-03T11:04:00.423Z,22.74
2022-09-03T11:09:08.974Z,22.53
2022-09-03T11:14:16.270Z,23.10
2022-09-03T11:19:21.150Z,23.57
2022-09-03T11:24:26.642Z,23.90
2022-09-03T11:29:38.297Z,23.98
2022-09-03T11:34:47.445Z,24.25
2022-09-03T11:39:59.051Z,24.53
2022-09-03T11:45:15.802Z,24.61
2022-09-03T11:50:22.529Z,24.88
2022-09-03T11:55:36.082Z,25.36
2022-09-03T12:00:44.497Z,25.16
2022-09-03T12:05:53.666Z,25.24
2022-09-03T12:10:59.860Z,25.57
2022-09-03T12:16:29.365Z,25.23
2022-09-03T12:21:32.108Z,24.70
2022-09-03T12:26:40.905Z,24.86
2022-09-03T12:31:48.411Z,24.82
2022-09-03T12:36:52.795Z,24.57
2022-09-03T12:42:01.282Z,24.56
2022-09-03T12:52:38.556Z,25.25
2022-09-03T12:57:43.708Z,25.42
2022-09-03T13:02:53.682Z,25.01
2022-09-03T13:07:59.380Z,25.32
2022-09-03T13:13:03.495Z,25.34
2022-09-03T13:18:27.113Z,25.27
2022-09-03T13:23:38.857Z,24.72
2022-09-03T13:28:52.586Z,25.07
2022-09-03T13:33:59.109Z,25.32
2022-09-03T13:39:06.256Z,25.34
2022-09-03T13:44:12.893Z,25.32
2022-09-03T13:49:46.468Z,25.60
2022-09-03T13:54:53.892Z,25.08
2022-09-03T14:00:01.138Z,25.02
2022-09-03T14:05:14.288Z,24.82
2022-09-03T14:10:23.719Z,25.27
2022-09-03T14:15:30.317Z,25.22
2022-09-03T14:20:41.972Z,25.14
2022-09-03T14:25:53.723Z,25.16
2022-09-03T14:31:00.549Z,24.94
2022-09-03T14:36:13.292Z,24.73
2022-09-03T14:41:37.552Z,24.98
2022-09-03T14:46:50.227Z,24.98
2022-09-03T14:52:09.155Z,24.86
2022-09-03T14:57:35.307Z,25.19
2022-09-03T15:02:51.355Z,24.85
2022-09-03T15:07:58.199Z,24.72
2022-09-03T15:13:10.107Z,24.64
2022-09-03T15:18:22.192Z,24.71
2022-09-03T15:23:48.755Z,24.56
2022-09-03T15:29:00.668Z,24.41
2022-09-03T15:34:12.479Z,24.34
2022-09-03T15:39:21.951Z,24.16
2022-09-03T15:44:25.816Z,23.78
2022-09-03T15:49:36.079Z,23.77
2022-09-03T15:54:44.669Z,24.03
2022-09-03T15:59:53.320Z,23.56
2022-09-03T16:05:07.104Z,23.44
2022-09-03T16:10:30.282Z,23.33
2022-09-03T16:15:37.568Z,23.34
2022-09-03T16:20:44.647Z,23.24
2022-09-03T16:25:51.391Z,23.65
2022-09-03T16:31:04.016Z,23.53
2022-09-03T16:36:18.948Z,23.41
2022-09-03T16:41:29.037Z,23.28
2022-09-03T16:46:36.843Z,23.18
2022-09-03T16:51:45.909Z,23.31
2022-09-03T16:56:57.559Z,23.26
2022-09-03T17:02:37.022Z,23.06
2022-09-03T17:07:45.411Z,23.04
2022-09-03T17:12:56.810Z,23.08
2022-09-03T17:18:27.137Z,22.90
2022-09-03T17:23:50.390Z,23.03
2022-09-03T17:29:04.907Z,22.89
2022-09-03T17:34:15.072Z,22.78
2022-09-03T17:39:39.752Z,22.71
2022-09-03T17:44:52.103Z,22.72
2022-09-03T17:49:57.991Z,22.63
2022-09-03T17:55:02.056Z,22.47
2022-09-03T18:00:08.316Z,22.33
2022-09-03T18:05:19.649Z,22.42
2022-09-03T18:10:28.210Z,22.23
2022-09-03T18:15:33.980Z,22.09
2022-09-03T18:21:21.957Z,22.08
2022-09-03T18:26:46.650Z,22.04
2022-09-03T18:32:09.095Z,21.93
2022-09-03T18:37:29.973Z,21.84
2022-09-03T18:42:59.192Z,21.86
2022-09-03T18:48:28.464Z,21.69
2022-09-03T18:53:55.765Z,21.58
2022-09-03T18:59:28.066Z,21.56
2022-09-03T19:05:03.676Z,21.51
2022-09-03T19:10:27.113Z,21.42
2022-09-03T19:15:49.975Z,21.32
2022-09-03T19:21:19.158Z,21.44
2022-09-03T19:26:45.814Z,21.26
2022-09-03T19:32:10.661Z,21.11
2022-09-03T19:37:36.470Z,20.98
2022-09-03T19:43:04.052Z,20.83
2022-09-03T19:48:29.316Z,20.80
2022-09-03T19:53:50.810Z,20.62
2022-09-03T19:59:14.821Z,20.49
2022-09-03T20:04:35.168Z,20.42
2022-09-03T20:09:59.254Z,20.44
2022-09-03T20:15:04.394Z,20.36
2022-09-03T20:20:17.463Z,20.50
2022-09-03T20:25:57.482Z,20.52
2022-09-03T20:31:03.147Z,20.53
2022-09-03T20:36:15.007Z,20.51
2022-09-03T20:41:24.893Z,20.43
2022-09-03T20:46:38.511Z,20.32
2022-09-03T20:51:46.030Z,20.40
2022-09-03T20:57:14.367Z,20.28
2022-09-03T21:02:26.706Z,20.19
2022-09-03T21:07:37.442Z,20.10
2022-09-03T21:12:49.152Z,20.17
2022-09-03T21:17:57.209Z,20.02
2022-09-03T21:23:07.033Z,19.93
2022-09-03T21:28:15.037Z,19.80
2022-09-03T21:33:20.620Z,19.80
2022-09-03T21:38:26.120Z,19.76
2022-09-03T21:43:34.108Z,19.63
2022-09-03T21:48:39.394Z,19.57
2022-09-03T21:53:45.251Z,19.52
2022-09-03T21:59:00.362Z,19.40
2022-09-03T22:04:03.461Z,19.28
2022-09-03T22:09:11.903Z,19.18
2022-09-03T22:14:17.123Z,19.14
2022-09-03T22:19:19.795Z,18.98
2022-09-03T22:24:28.008Z,18.90
2022-09-03T22:29:38.026Z,18.77
2022-09-03T22:34:50.054Z,18.71
2022-09-03T22:39:56.249Z,18.82
2022-09-03T22:45:13.553Z,18.70
2022-09-03T22:50:20.522Z,18.52
2022-09-03T22:55:25.492Z,18.51
2022-09-03T23:00:31.078Z,18.53
2022-09-03T23:05:41.195Z,18.43
2022-09-03T23:11:00.383Z,18.35
2022-09-03T23:16:10.804Z,18.35
2022-09-03T23:21:23.054Z,18.12
2022-09-03T23:26:31.519Z,18.12
2022-09-03T23:31:35.837Z,18.04
2022-09-03T23:42:23.493Z,17.98
2022-09-03T23:47:37.144Z,17.75
2022-09-03T23:52:53.798Z,17.72
2022-09-03T23:58:08.182Z,17.63
